Time;durP1;ratioP1;P1;durP2;ratioP2;P2;SDS_P1;SDS_P2;PMS_P1;PMS_P2;Temp;Humidity;BMP_temperature;BMP_pressure;BME280_temperature;BME280_humidity;BME280_pressure;Samples;Min_cycle;Max_cycle;Signal;HPM_P1;HPM_P2
2023/10/30 00:00:35;;;;;;;13.90;4.07;;;;;;;9.52;100.00;99666.88;5262270;28;20195;-75
2023/10/30 00:03:09;;;;;;;14.00;3.47;;;;;;;9.55;100.00;99670.22;5262419;28;20033;-75
2023/10/30 00:05:40;;;;;;;10.70;3.53;;;;;;;9.53;100.00;99677.22;5262150;28;20053;-75
2023/10/30 00:08:12;;;;;;;12.23;3.50;;;;;;;9.52;100.00;99675.50;5262201;28;20547;-74
2023/10/30 00:10:43;;;;;;;11.47;4.47;;;;;;;9.54;100.00;99678.06;5262060;28;20135;-74
2023/10/30 00:13:15;;;;;;;12.73;3.10;;;;;;;9.51;100.00;99676.41;5261991;28;20048;-75
2023/10/30 00:15:46;;;;;;;15.43;4.63;;;;;;;9.46;100.00;99681.72;5262350;28;20491;-74
2023/10/30 00:18:18;;;;;;;12.03;3.97;;;;;;;9.45;100.00;99690.44;5261073;28;20036;-75
2023/10/30 00:20:49;;;;;;;13.33;2.87;;;;;;;9.44;100.00;99693.06;5261850;28;20108;-75
2023/10/30 00:23:20;;;;;;;14.40;3.93;;;;;;;9.46;100.00;99694.72;5262374;28;20029;-76
2023/10/30 00:25:53;;;;;;;11.20;3.23;;;;;;;9.47;100.00;99700.78;5265164;28;20108;-75
2023/10/30 00:28:24;;;;;;;12.77;3.38;;;;;;;9.46;100.00;99706.88;5262737;28;20036;-75
2023/10/30 00:30:56;;;;;;;16.13;3.97;;;;;;;9.45;100.00;99713.84;5262135;28;20403;-75
2023/10/30 00:33:27;;;;;;;17.50;4.63;;;;;;;9.37;100.00;99713.19;5260845;28;20033;-75
2023/10/30 00:35:59;;;;;;;16.43;4.10;;;;;;;9.39;100.00;99716.59;5262243;28;20033;-75
2023/10/30 00:38:30;;;;;;;17.90;3.37;;;;;;;9.45;100.00;99719.03;5261887;28;20039;-75
2023/10/30 00:41:02;;;;;;;15.03;4.03;;;;;;;9.41;100.00;99720.00;5262337;28;20033;-75
2023/10/30 00:43:33;;;;;;;10.40;3.20;;;;;;;9.38;100.00;99729.63;5260885;28;20136;-75
2023/10/30 00:46:06;;;;;;;14.73;4.27;;;;;;;9.51;100.00;99722.38;5260579;28;20029;-75
2023/10/30 00:48:38;;;;;;;15.25;3.30;;;;;;;9.45;100.00;99729.44;5261741;28;20491;-75
2023/10/30 00:51:09;;;;;;;14.67;4.17;;;;;;;9.45;100.00;99736.38;5260129;28;20037;-75
2023/10/30 00:53:41;;;;;;;15.50;3.87;;;;;;;9.46;100.00;99738.09;5261642;28;20029;-75
2023/10/30 00:56:13;;;;;;;16.10;4.10;;;;;;;9.45;100.00;99744.19;5261623;28;20040;-75
2023/10/30 00:58:44;;;;;;;14.03;4.23;;;;;;;9.47;100.00;99751.06;5261855;28;20033;-75
2023/10/30 01:01:17;;;;;;;13.57;3.40;;;;;;;9.43;100.00;99753.78;5261646;28;20025;-75
2023/10/30 01:03:48;;;;;;;17.67;4.38;;;;;;;9.41;100.00;99753.81;5262022;28;20033;-76
2023/10/30 01:06:19;;;;;;;15.57;3.43;;;;;;;9.38;100.00;99753.88;5262060;28;20032;-75
2023/10/30 01:08:51;;;;;;;15.90;3.43;;;;;;;9.44;100.00;99751.13;5265358;28;20025;-75
2023/10/30 01:11:22;;;;;;;23.40;5.03;;;;;;;9.47;100.00;99764.06;5265377;28;20041;-76
2023/10/30 01:13:54;;;;;;;13.87;3.67;;;;;;;9.52;100.00;99765.72;5265948;28;20029;-76
2023/10/30 01:16:25;;;;;;;14.43;4.70;;;;;;;9.56;100.00;99772.53;5265489;28;20508;-75
2023/10/30 01:18:56;;;;;;;16.53;3.33;;;;;;;9.52;100.00;99783.94;5265223;28;20040;-75
2023/10/30 01:21:28;;;;;;;10.60;3.40;;;;;;;9.56;100.00;99775.13;5265893;28;20371;-75
2023/10/30 01:23:59;;;;;;;13.23;3.47;;;;;;;9.60;100.00;99782.00;5265171;28;20036;-75
2023/10/30 01:26:30;;;;;;;16.03;3.53;;;;;;;9.58;100.00;99774.22;5265066;28;20432;-75
2023/10/30 01:29:02;;;;;;;15.13;3.90;;;;;;;9.52;100.00;99776.13;5263728;28;20025;-75
2023/10/30 01:31:33;;;;;;;12.20;3.50;;;;;;;9.62;100.00;99767.19;5265466;28;20033;-75
2023/10/30 01:34:05;;;;;;;12.83;3.30;;;;;;;9.64;100.00;99760.19;5264747;28;20037;-76
2023/10/30 01:36:36;;;;;;;11.03;2.80;;;;;;;9.70;100.00;99754.84;5265438;28;20156;-75
2023/10/30 01:39:07;;;;;;;13.13;3.03;;;;;;;9.68;100.00;99759.22;5264887;28;20039;-75
2023/10/30 01:41:42;;;;;;;12.37;3.27;;;;;;;9.70;100.00;99757.44;5264949;28;20029;-75
2023/10/30 01:44:13;;;;;;;11.02;3.15;;;;;;;9.72;100.00;99757.41;5264856;28;20080;-75
2023/10/30 01:46:45;;;;;;;16.30;3.53;;;;;;;9.66;100.00;99763.63;5265267;28;20068;-75
2023/10/30 01:49:16;;;;;;;14.13;3.87;;;;;;;9.60;100.00;99769.81;5264400;28;20083;-75
2023/10/30 01:51:48;;;;;;;12.67;2.80;;;;;;;9.64;100.00;99771.47;5264958;28;20071;-75
2023/10/30 01:54:19;;;;;;;10.73;2.90;;;;;;;9.68;100.00;99762.69;5264556;28;20033;-75
2023/10/30 01:56:51;;;;;;;16.53;3.20;;;;;;;9.70;100.00;99767.84;5264388;28;20033;-74
2023/10/30 01:59:22;;;;;;;14.97;4.70;;;;;;;9.70;100.00;99767.00;5264574;28;20119;-74
2023/10/30 02:01:54;;;;;;;10.33;3.60;;;;;;;9.66;100.00;99784.44;5264515;28;20055;-75
2023/10/30 02:04:25;;;;;;;10.27;3.03;;;;;;;9.73;100.00;99780.78;5264480;28;20028;-75
2023/10/30 02:06:57;;;;;;;11.63;2.57;;;;;;;9.72;100.00;99781.66;5264446;28;20104;-75
2023/10/30 02:09:30;;;;;;;12.88;3.45;;;;;;;9.73;100.00;99777.34;5262810;28;20180;-74
2023/10/30 02:12:01;;;;;;;;;;;;;;;9.68;100.00;99785.25;5264623;28;20029;-74
2023/10/30 02:14:33;;;;;;;11.73;2.90;;;;;;;9.77;100.00;99779.81;5264312;28;19966;-75
2023/10/30 02:17:05;;;;;;;12.70;3.72;;;;;;;9.74;100.00;99772.09;5264143;28;20558;-76
2023/10/30 02:19:36;;;;;;;13.47;4.60;;;;;;;9.79;100.00;99770.22;5263716;28;20036;-76
2023/10/30 02:22:08;;;;;;;13.67;3.40;;;;;;;9.79;100.00;99772.81;5263651;28;20082;-75
2023/10/30 02:24:39;;;;;;;13.43;3.07;;;;;;;9.77;100.00;99773.75;5264304;28;20045;-75
2023/10/30 02:27:10;;;;;;;12.13;3.07;;;;;;;9.78;100.00;99773.69;5264385;28;20036;-75
2023/10/30 02:29:42;;;;;;;8.80;2.50;;;;;;;9.75;100.00;99773.78;5264117;28;20029;-75
2023/10/30 02:32:14;;;;;;;11.50;2.60;;;;;;;9.77;100.00;99769.41;5265792;28;20037;-76
2023/10/30 02:34:45;;;;;;;14.00;2.90;;;;;;;9.72;100.00;99773.84;5264744;28;20811;-74
2023/10/30 02:37:17;;;;;;;11.40;2.60;;;;;;;9.72;100.00;99776.47;5263844;28;20056;-74
2023/10/30 02:39:48;;;;;;;8.70;2.40;;;;;;;9.72;100.00;99767.81;5263690;28;20029;-75
2023/10/30 02:42:19;;;;;;;11.23;3.63;;;;;;;9.67;100.00;99765.31;5262501;28;20033;-75
2023/10/30 02:44:51;;;;;;;9.93;3.17;;;;;;;9.62;100.00;99764.59;5279070;28;20029;-76
2023/10/30 02:47:24;;;;;;;10.53;2.90;;;;;;;9.58;100.00;99760.34;5262684;28;20037;-74
2023/10/30 02:49:55;;;;;;;12.43;3.25;;;;;;;9.62;100.00;99751.56;5262065;28;20086;-74
2023/10/30 02:52:26;;;;;;;7.80;2.83;;;;;;;9.59;100.00;99759.47;5263181;28;20026;-75
2023/10/30 02:54:58;;;;;;;12.73;3.87;;;;;;;9.67;100.00;99766.16;5263654;28;20373;-75
2023/10/30 02:57:29;;;;;;;11.53;2.90;;;;;;;9.68;100.00;99767.88;5263368;28;20033;-74
2023/10/30 03:00:00;;;;;;;11.60;3.40;;;;;;;9.72;100.00;99768.66;5263420;28;20025;-76
2023/10/30 03:02:32;;;;;;;14.67;3.47;;;;;;;9.66;100.00;99761.03;5263781;28;20116;-76
2023/10/30 03:05:03;;;;;;;15.17;2.90;;;;;;;9.68;100.00;99759.22;5263154;28;20472;-75
2023/10/30 03:07:35;;;;;;;12.03;2.83;;;;;;;9.79;100.00;99759.81;5263172;28;20040;-75
2023/10/30 03:10:07;;;;;;;12.97;3.47;;;;;;;9.79;100.00;99767.63;5263131;28;20021;-75
2023/10/30 03:12:38;;;;;;;13.57;3.83;;;;;;;9.72;100.00;99765.22;5263020;28;20117;-76
2023/10/30 03:15:09;;;;;;;15.37;3.17;;;;;;;9.72;100.00;99771.25;5263492;28;20047;-75
2023/10/30 03:17:41;;;;;;;13.60;3.40;;;;;;;9.64;100.00;99781.88;5263168;28;20102;-76
2023/10/30 03:20:14;;;;;;;15.47;3.30;;;;;;;9.64;100.00;99783.59;5262303;28;20049;-75
2023/10/30 03:22:45;;;;;;;;;;;;;;;9.60;100.00;99785.44;5263766;28;20035;-75
2023/10/30 03:25:16;;;;;;;11.85;2.70;;;;;;;9.58;100.00;99786.34;5263081;28;19908;-74
2023/10/30 03:27:47;;;;;;;11.13;2.90;;;;;;;9.61;100.00;99786.28;5262751;28;20112;-75
2023/10/30 03:30:19;;;;;;;13.43;3.63;;;;;;;9.55;100.00;99791.66;5262113;28;20032;-74
2023/10/30 03:32:50;;;;;;;16.43;3.67;;;;;;;9.57;100.00;99787.28;5262834;28;20032;-75
2023/10/30 03:35:22;;;;;;;7.43;2.53;;;;;;;9.49;100.00;99787.44;5262756;28;20033;-75
2023/10/30 03:37:53;;;;;;;14.17;3.87;;;;;;;9.40;100.00;99787.66;5262995;28;20088;-74
2023/10/30 03:40:24;;;;;;;10.00;2.63;;;;;;;9.33;100.00;99766.16;5262993;28;20064;-76
2023/10/30 03:42:56;;;;;;;14.80;2.83;;;;;;;9.35;100.00;99777.38;5261326;28;20033;-76
2023/10/30 03:45:27;;;;;;;15.07;2.97;;;;;;;9.30;100.00;99774.03;5262024;28;20032;-75
2023/10/30 03:47:59;;;;;;;11.47;3.23;;;;;;;9.31;100.00;99784.38;5262512;28;20037;-74
2023/10/30 03:50:30;;;;;;;12.23;2.70;;;;;;;9.31;100.00;99783.56;5262428;28;20027;-75
2023/10/30 03:53:02;;;;;;;13.23;3.87;;;;;;;9.24;100.00;99777.66;5262503;28;20492;-75
2023/10/30 03:55:33;;;;;;;13.77;3.40;;;;;;;9.23;100.00;99788.91;5262658;28;20025;-75
2023/10/30 03:58:04;;;;;;;15.23;4.40;;;;;;;9.16;100.00;99787.38;5262671;28;20041;-75
2023/10/30 04:00:36;;;;;;;12.30;3.00;;;;;;;9.18;100.00;99779.53;5261178;28;20116;-75
2023/10/30 04:03:08;;;;;;;11.23;3.27;;;;;;;9.15;100.00;99790.84;5261902;28;20029;-77
2023/10/30 04:05:39;;;;;;;13.55;3.72;;;;;;;9.14;100.00;99778.72;5261001;28;20392;-75
2023/10/30 04:08:10;;;;;;;10.70;3.00;;;;;;;9.18;100.00;99782.97;5261896;28;20033;-74
2023/10/30 04:10:42;;;;;;;12.80;3.30;;;;;;;9.19;100.00;99781.22;5261987;28;20029;-75
2023/10/30 04:13:14;;;;;;;11.33;3.30;;;;;;;9.23;100.00;99778.53;5260563;28;20036;-75
2023/10/30 04:15:46;;;;;;;11.88;3.83;;;;;;;9.22;100.00;99776.81;5261763;28;20040;-76
2023/10/30 04:18:18;;;;;;;12.73;3.23;;;;;;;9.24;100.00;99772.44;5262228;28;20045;-76
2023/10/30 04:20:49;;;;;;;11.93;3.20;;;;;;;9.21;100.00;99771.63;5261934;28;20278;-76
2023/10/30 04:23:20;;;;;;;13.93;3.30;;;;;;;9.15;100.00;99784.81;5260684;28;20112;-76
2023/10/30 04:25:52;;;;;;;10.77;2.80;;;;;;;9.18;100.00;99776.94;5261862;28;20025;-75
2023/10/30 04:28:23;;;;;;;13.20;3.67;;;;;;;9.19;100.00;99774.28;5260574;28;20041;-75
2023/10/30 04:30:55;;;;;;;11.03;3.00;;;;;;;9.17;100.00;99783.00;5261663;28;20047;-76
2023/10/30 04:33:27;;;;;;;13.13;3.43;;;;;;;9.17;100.00;99789.06;5262113;28;20431;-76
2023/10/30 04:36:02;;;;;;;9.88;2.83;;;;;;;9.13;100.00;99790.03;5261924;28;20377;-75
2023/10/30 04:38:36;;;;;;;12.02;2.80;;;;;;;9.11;100.00;99789.19;5261838;28;20036;-75
2023/10/30 04:41:07;;;;;;;14.65;3.10;;;;;;;9.10;100.00;99790.09;5262880;28;20032;-75
2023/10/30 04:43:39;;;;;;;16.93;4.47;;;;;;;9.07;100.00;99792.78;5266364;28;20479;-75
2023/10/30 04:46:10;;;;;;;15.77;2.90;;;;;;;9.06;100.00;99788.44;5265958;28;20025;-75
2023/10/30 04:48:41;;;;;;;10.87;2.80;;;;;;;9.01;100.00;99791.16;5265982;28;20400;-74
2023/10/30 04:51:13;;;;;;;14.80;4.10;;;;;;;9.05;100.00;99790.22;5266384;28;20074;-75
2023/10/30 04:53:44;;;;;;;12.37;2.97;;;;;;;9.07;100.00;99782.38;5266076;28;20176;-75
2023/10/30 04:56:15;;;;;;;14.30;3.40;;;;;;;9.01;100.00;99785.09;5266534;28;20025;-77
2023/10/30 04:58:47;;;;;;;18.20;4.10;;;;;;;9.03;100.00;99779.00;5266509;28;20036;-74
2023/10/30 05:01:18;;;;;;;14.97;2.73;;;;;;;8.95;100.00;99778.28;5265331;28;20064;-76
2023/10/30 05:03:49;;;;;;;15.17;4.33;;;;;;;8.94;100.00;99780.03;5266720;28;20448;-74
2023/10/30 05:06:21;;;;;;;14.23;3.10;;;;;;;8.90;100.00;99777.53;5265784;28;20029;-74
2023/10/30 05:08:52;;;;;;;12.00;3.50;;;;;;;8.84;100.00;99769.88;5265967;28;20184;-75
2023/10/30 05:11:23;;;;;;;13.57;3.27;;;;;;;8.84;100.00;99775.06;5265730;28;20064;-76
2023/10/30 05:13:55;;;;;;;13.40;2.90;;;;;;;8.76;100.00;99773.50;5266045;28;20064;-75
2023/10/30 05:16:26;;;;;;;15.27;3.10;;;;;;;8.75;100.00;99779.56;5265812;28;20083;-75
2023/10/30 05:18:58;;;;;;;17.50;3.77;;;;;;;8.72;100.00;99781.38;5265944;28;20033;-75
2023/10/30 05:21:29;;;;;;;14.70;3.40;;;;;;;8.68;100.00;99791.00;5265528;28;20120;-74
2023/10/30 05:24:00;;;;;;;20.07;3.90;;;;;;;8.62;100.00;99785.94;5264417;28;20037;-75
2023/10/30 05:26:32;;;;;;;18.97;4.67;;;;;;;8.66;100.00;99782.41;5265316;28;20369;-75
2023/10/30 05:29:03;;;;;;;10.33;3.07;;;;;;;8.66;100.00;99776.31;5265196;28;20470;-75
2023/10/30 05:31:34;;;;;;;18.17;3.67;;;;;;;8.63;100.00;99777.25;5280273;28;20059;-75
2023/10/30 05:34:06;;;;;;;14.97;3.40;;;;;;;8.60;100.00;99768.66;5265526;28;20364;-74
2023/10/30 05:36:37;;;;;;;13.17;3.93;;;;;;;8.59;100.00;99760.00;5264787;28;20097;-75
2023/10/30 05:39:08;;;;;;;15.57;3.70;;;;;;;8.55;100.00;99761.81;5265542;28;20342;-74
2023/10/30 05:41:40;;;;;;;14.13;4.03;;;;;;;8.57;100.00;99765.25;5264989;28;20029;-74
2023/10/30 05:44:11;;;;;;;18.53;3.60;;;;;;;8.56;100.00;99763.56;5264917;28;20108;-74
2023/10/30 05:46:42;;;;;;;17.03;3.83;;;;;;;8.57;100.00;99762.63;5265389;28;20357;-73
2023/10/30 05:49:14;;;;;;;14.77;4.17;;;;;;;8.53;100.00;99775.72;5264774;28;20037;-74
2023/10/30 05:51:45;;;;;;;13.70;3.47;;;;;;;8.51;100.00;99772.31;5264979;28;20039;-74
2023/10/30 05:54:17;;;;;;;16.00;3.77;;;;;;;8.50;100.00;99760.19;5263433;28;20068;-73
2023/10/30 05:56:49;;;;;;;18.03;4.80;;;;;;;8.48;100.00;99765.41;5264660;28;20094;-73
2023/10/30 05:59:20;;;;;;;14.23;3.50;;;;;;;8.39;100.00;99758.66;5264595;28;20025;-74
2023/10/30 06:01:52;;;;;;;13.03;3.63;;;;;;;8.37;100.00;99759.56;5264646;28;20036;-75
2023/10/30 06:04:24;;;;;;;18.45;4.15;;;;;;;8.37;100.00;99755.25;5264587;28;20083;-74
2023/10/30 06:06:55;;;;;;;14.77;3.73;;;;;;;8.35;100.00;99757.00;5264972;28;20036;-74
2023/10/30 06:09:27;;;;;;;18.43;4.13;;;;;;;8.32;100.00;99751.00;5263384;28;20029;-74
2023/10/30 06:11:58;;;;;;;10.73;3.33;;;;;;;8.34;100.00;99751.81;5264713;28;20064;-74
2023/10/30 06:14:30;;;;;;;10.23;3.63;;;;;;;8.28;100.00;99757.16;5263931;28;20033;-74
2023/10/30 06:17:02;;;;;;;25.70;5.67;;;;;;;8.32;100.00;99756.22;5264280;28;20049;-74
2023/10/30 06:19:34;;;;;;;16.25;3.45;;;;;;;8.31;100.00;99757.97;5264314;28;20025;-74
2023/10/30 06:22:05;;;;;;;15.27;4.07;;;;;;;8.31;100.00;99767.50;5264452;28;20396;-73
2023/10/30 06:24:37;;;;;;;11.93;3.47;;;;;;;8.38;100.00;99776.88;5262669;28;20036;-74
2023/10/30 06:27:08;;;;;;;13.43;2.87;;;;;;;8.37;100.00;99778.63;5264031;28;20029;-74
2023/10/30 06:29:40;;;;;;;16.07;4.37;;;;;;;8.35;100.00;99777.78;5262706;28;20045;-74
2023/10/30 06:32:11;;;;;;;17.03;3.77;;;;;;;8.42;100.00;99781.13;5264383;28;20468;-74
2023/10/30 06:34:42;;;;;;;15.43;3.70;;;;;;;8.40;100.00;99788.94;5263586;28;20029;-74
2023/10/30 06:37:15;;;;;;;12.53;4.77;;;;;;;8.42;100.00;99790.63;5279221;28;20064;-75
2023/10/30 06:39:46;;;;;;;;;;;;;;;8.39;100.00;99797.59;5264725;28;20083;-74
2023/10/30 06:42:18;;;;;;;18.02;3.90;;;;;;;8.46;100.00;99802.72;5264099;28;20019;-75
2023/10/30 06:44:49;;;;;;;14.20;3.17;;;;;;;8.48;100.00;99808.72;5262502;28;20040;-73
2023/10/30 06:47:21;;;;;;;19.57;3.20;;;;;;;8.51;100.00;99806.91;5263542;28;20029;-74
2023/10/30 06:49:52;;;;;;;14.03;3.37;;;;;;;8.54;100.00;99809.47;5263339;28;20068;-74
2023/10/30 06:52:23;;;;;;;16.63;4.53;;;;;;;8.53;100.00;99812.09;5263714;28;20025;-75
2023/10/30 06:54:55;;;;;;;11.70;4.27;;;;;;;8.53;100.00;99805.16;5262361;28;20037;-74
2023/10/30 06:57:27;;;;;;;12.27;3.00;;;;;;;8.51;100.00;99804.31;5263698;28;20494;-74
2023/10/30 06:59:58;;;;;;;17.07;3.47;;;;;;;8.58;100.00;99818.03;5262990;28;20029;-73
2023/10/30 07:02:32;;;;;;;17.20;4.23;;;;;;;8.58;100.00;99820.63;5263544;28;20029;-75
2023/10/30 07:05:04;;;;;;;14.82;4.15;;;;;;;8.64;100.00;99819.66;5262654;28;20029;-74
2023/10/30 07:07:35;;;;;;;15.40;3.23;;;;;;;8.63;100.00;99818.81;5263395;28;20055;-74
2023/10/30 07:10:07;;;;;;;10.50;3.60;;;;;;;8.68;100.00;99819.59;5263589;28;20518;-75
2023/10/30 07:12:39;;;;;;;16.00;4.23;;;;;;;8.70;100.00;99820.41;5263038;28;20095;-74
2023/10/30 07:15:10;;;;;;;15.17;3.40;;;;;;;8.70;100.00;99823.00;5262425;28;20033;-74
2023/10/30 07:17:41;;;;;;;14.23;4.10;;;;;;;8.76;100.00;99819.44;5263278;28;20049;-74
2023/10/30 07:20:13;;;;;;;16.53;4.27;;;;;;;8.76;100.00;99815.06;5262929;28;20044;-74
2023/10/30 07:22:45;;;;;;;22.13;4.63;;;;;;;8.76;100.00;99816.84;5263477;28;20037;-74
2023/10/30 07:25:16;;;;;;;16.57;4.20;;;;;;;8.80;100.00;99815.88;5263089;28;20538;-74
2023/10/30 07:27:47;;;;;;;11.93;3.63;;;;;;;8.81;100.00;99817.59;5261828;28;20086;-73
2023/10/30 07:30:19;;;;;;;12.13;3.87;;;;;;;8.83;100.00;99830.56;5262477;28;20033;-73
2023/10/30 07:32:50;;;;;;;14.07;3.47;;;;;;;8.93;100.00;99842.44;5263009;28;20120;-74
2023/10/30 07:35:22;;;;;;;17.37;3.40;;;;;;;8.94;100.00;99837.22;5262742;28;20029;-74
2023/10/30 07:37:53;;;;;;;13.73;3.67;;;;;;;9.03;100.00;99832.72;5261676;28;20029;-75
2023/10/30 07:40:26;;;;;;;13.13;3.47;;;;;;;9.16;100.00;99852.38;5262443;28;20061;-74
2023/10/30 07:42:57;;;;;;;16.50;4.47;;;;;;;9.24;100.00;99858.25;5262577;28;20492;-75
2023/10/30 07:45:28;;;;;;;14.23;3.67;;;;;;;9.32;100.00;99858.06;5262888;28;20029;-74
2023/10/30 07:48:00;;;;;;;15.13;4.83;;;;;;;9.38;100.00;99855.31;5262459;28;20052;-74
2023/10/30 07:50:32;;;;;;;10.87;3.37;;;;;;;9.44;100.00;99855.19;5262501;28;20029;-75
2023/10/30 07:53:04;;;;;;;14.00;3.55;;;;;;;9.53;100.00;99843.72;5262463;28;20056;-73
2023/10/30 07:55:38;;;;;;;14.30;4.47;;;;;;;9.61;100.00;99840.91;5262368;28;20086;-73
2023/10/30 07:58:10;;;;;;;10.93;3.00;;;;;;;9.63;100.00;99842.59;5262320;28;20029;-74
2023/10/30 08:00:41;;;;;;;15.63;3.07;;;;;;;9.68;100.00;99843.34;5260857;28;20536;-74
2023/10/30 08:03:14;;;;;;;11.47;3.87;;;;;;;9.74;100.00;99842.34;5261830;28;20299;-73
2023/10/30 08:05:45;;;;;;;;;;;;;;;9.80;100.00;99846.53;5277973;28;20461;-73
2023/10/30 08:08:17;;;;;;;13.05;2.92;;;;;;;9.83;100.00;99846.47;5262270;28;19920;-74
2023/10/30 08:10:48;;;;;;;13.47;5.27;;;;;;;9.94;100.00;99854.88;5262181;28;20033;-74
2023/10/30 08:13:20;;;;;;;12.73;3.47;;;;;;;10.06;100.00;99855.44;5262694;28;20029;-74
2023/10/30 08:15:53;;;;;;;14.63;3.78;;;;;;;10.21;100.00;99855.91;5262038;28;20380;-73
2023/10/30 08:18:25;;;;;;;12.88;3.28;;;;;;;10.34;100.00;99853.03;5262773;28;20456;-74
2023/10/30 08:20:57;;;;;;;12.07;4.78;;;;;;;10.51;100.00;99856.03;5262027;28;20454;-74
2023/10/30 08:23:29;;;;;;;14.55;3.35;;;;;;;10.66;100.00;99862.56;5262088;28;20372;-75
2023/10/30 08:26:01;;;;;;;15.33;5.03;;;;;;;10.79;100.00;99859.59;5261929;28;20040;-74
2023/10/30 08:28:33;;;;;;;11.07;3.10;;;;;;;10.93;100.00;99862.66;5261740;28;20044;-74
2023/10/30 08:31:04;;;;;;;14.10;4.45;;;;;;;11.00;100.00;99874.63;5262092;28;20108;-73
2023/10/30 08:33:36;;;;;;;13.13;3.03;;;;;;;11.05;100.00;99877.09;5262070;28;20112;-74
2023/10/30 08:36:07;;;;;;;10.93;3.63;;;;;;;11.18;100.00;99873.22;5260708;28;20036;-73
2023/10/30 08:38:40;;;;;;;11.27;3.37;;;;;;;11.27;100.00;99870.34;5262083;28;20048;-73
2023/10/30 08:41:15;;;;;;;14.80;4.45;;;;;;;11.35;100.00;99869.25;5261992;28;20033;-73
2023/10/30 08:43:47;;;;;;;11.23;3.60;;;;;;;11.43;100.00;99868.13;5261896;28;20391;-74
2023/10/30 08:46:18;;;;;;;14.83;3.77;;;;;;;11.59;100.00;99868.50;5262272;28;20029;-75
2023/10/30 08:48:51;;;;;;;9.57;2.97;;;;;;;11.74;100.00;99863.69;5262487;28;20032;-74
2023/10/30 08:51:23;;;;;;;14.85;3.47;;;;;;;11.83;100.00;99874.69;5262337;28;20460;-75
2023/10/30 08:53:54;;;;;;;12.63;3.00;;;;;;;11.87;100.00;99875.44;5262655;28;20037;-75
2023/10/30 08:56:26;;;;;;;11.40;3.90;;;;;;;11.94;100.00;99861.28;5262350;28;20037;-74
2023/10/30 08:58:57;;;;;;;14.30;3.30;;;;;;;12.01;100.00;99870.66;5261660;28;20029;-74
2023/10/30 09:01:31;;;;;;;11.13;3.30;;;;;;;12.09;100.00;99867.78;5261969;28;20264;-75
2023/10/30 09:04:02;;;;;;;10.35;3.45;;;;;;;12.08;100.00;99866.06;5261711;28;20040;-74
2023/10/30 09:06:34;;;;;;;9.70;2.93;;;;;;;12.10;100.00;99872.09;5262025;28;20025;-75
2023/10/30 09:09:05;;;;;;;17.73;3.50;;;;;;;12.15;100.00;99877.16;5262037;28;20444;-74
2023/10/30 09:11:37;;;;;;;13.80;3.13;;;;;;;12.16;100.00;99882.34;5261043;28;20090;-74
2023/10/30 09:14:08;;;;;;;10.93;2.90;;;;;;;12.19;100.00;99882.22;5261740;28;20052;-74
2023/10/30 09:16:39;;;;;;;16.47;3.63;;;;;;;12.24;100.00;99878.63;5261211;28;20065;-74
2023/10/30 09:19:11;;;;;;;11.23;2.60;;;;;;;12.24;100.00;99873.41;5262126;28;20037;-75
2023/10/30 09:21:42;;;;;;;7.93;2.77;;;;;;;12.26;100.00;99872.44;5261862;28;20033;-75
2023/10/30 09:24:14;;;;;;;11.00;2.80;;;;;;;12.25;100.00;99862.03;5261685;28;20039;-76
2023/10/30 09:26:45;;;;;;;12.60;3.60;;;;;;;12.26;100.00;99858.50;5261528;28;20037;-74
2023/10/30 09:29:16;;;;;;;9.10;2.20;;;;;;;12.30;100.00;99854.88;5264806;28;20029;-73
2023/10/30 09:31:49;;;;;;;10.20;2.87;;;;;;;12.31;100.00;99852.22;5265101;28;20074;-75
2023/10/30 09:34:21;;;;;;;7.63;2.60;;;;;;;12.28;100.00;99857.53;5265236;28;20120;-73
2023/10/30 09:36:52;;;;;;;12.33;3.37;;;;;;;12.27;100.00;99866.31;5265300;28;20119;-75
2023/10/30 09:39:23;;;;;;;7.17;2.60;;;;;;;12.25;100.00;99869.84;5280829;28;20104;-73
2023/10/30 09:41:57;;;;;;;10.90;2.77;;;;;;;12.20;100.00;99867.41;5280362;28;20094;-73
2023/10/30 09:44:30;;;;;;;15.38;4.13;;;;;;;12.20;100.00;99865.66;5265788;28;20079;-74
2023/10/30 09:47:02;;;;;;;10.98;2.65;;;;;;;12.24;100.00;99865.56;5265299;28;20061;-75
2023/10/30 09:49:35;;;;;;;9.23;2.85;;;;;;;12.20;100.00;99859.56;5264940;28;20377;-73
2023/10/30 09:52:08;;;;;;;6.38;2.03;;;;;;;12.21;100.00;99862.13;5264807;28;20030;-74
2023/10/30 09:54:42;;;;;;;7.78;2.78;;;;;;;12.19;100.00;99857.88;5264780;28;20323;-75
2023/10/30 09:57:14;;;;;;;10.45;2.65;;;;;;;12.19;100.00;99855.25;5265146;28;20067;-73
2023/10/30 09:59:52;;;;;;;10.30;2.63;;;;;;;12.21;100.00;99848.22;5264719;28;20492;-74
2023/10/30 10:02:23;;;;;;;8.02;2.00;;;;;;;12.28;100.00;99836.63;5265222;28;20132;-75
2023/10/30 10:04:56;;;;;;;9.80;2.40;;;;;;;12.40;100.00;99840.59;5264284;28;20119;-74
2023/10/30 10:07:28;;;;;;;9.68;2.88;;;;;;;12.52;100.00;99832.28;5264689;28;20029;-75
2023/10/30 10:10:01;;;;;;;11.18;3.15;;;;;;;12.64;100.00;99828.41;5264097;28;20048;-74
2023/10/30 10:12:33;;;;;;;8.18;2.50;;;;;;;12.70;100.00;99832.53;5264435;28;20025;-74
2023/10/30 10:15:08;;;;;;;8.85;2.40;;;;;;;12.69;100.00;99834.31;5264842;28;20549;-74
2023/10/30 10:17:46;;;;;;;9.60;3.25;;;;;;;12.76;100.00;99827.94;5264021;28;20378;-74
2023/10/30 10:20:21;;;;;;;7.50;2.25;;;;;;;12.75;100.00;99834.09;5263723;28;20104;-74
2023/10/30 10:22:52;;;;;;;8.98;2.40;;;;;;;12.74;100.00;99839.38;5264217;28;20496;-75
2023/10/30 10:25:24;;;;;;;9.03;2.70;;;;;;;12.77;100.00;99829.66;5264348;28;20025;-76
2023/10/30 10:27:56;;;;;;;10.70;4.57;;;;;;;12.84;100.00;99837.25;5264128;28;20102;-74
2023/10/30 10:30:31;;;;;;;8.48;2.78;;;;;;;12.90;100.00;99844.88;5264114;28;20032;-75
2023/10/30 10:33:02;;;;;;;10.80;3.33;;;;;;;12.90;100.00;99835.28;5279349;28;20036;-74
2023/10/30 10:35:36;;;;;;;7.60;3.07;;;;;;;12.94;100.00;99841.22;5264667;28;20467;-73
2023/10/30 10:38:09;;;;;;;11.68;2.20;;;;;;;12.92;100.00;99837.84;5264509;28;20029;-74
2023/10/30 10:40:41;;;;;;;9.38;2.65;;;;;;;12.98;100.00;99832.38;5262436;28;20035;-74
2023/10/30 10:43:18;;;;;;;;;;;;;;;13.13;100.00;99831.75;5263053;28;20035;-74
2023/10/30 10:45:51;;;;;;;9.63;2.75;;;;;;;13.09;100.00;99838.03;5263692;28;19909;-74
2023/10/30 10:48:27;;;;;;;8.40;2.95;;;;;;;13.10;100.00;99837.13;5263979;28;20463;-73
2023/10/30 10:51:01;;;;;;;9.45;2.53;;;;;;;13.13;100.00;99846.63;5263414;28;20033;-74
2023/10/30 10:53:34;;;;;;;6.00;1.90;;;;;;;13.13;100.00;99837.00;5263633;28;20055;-74
2023/10/30 10:56:07;;;;;;;9.70;2.75;;;;;;;13.23;100.00;99826.19;5262441;28;20044;-73
2023/10/30 10:58:43;;;;;;;5.97;1.95;;;;;;;13.32;100.00;99831.06;5263419;28;20078;-74
2023/10/30 11:01:19;;;;;;;9.48;2.42;;;;;;;13.28;100.00;99840.81;5263843;28;20040;-73
2023/10/30 11:03:51;;;;;;;6.57;2.58;;;;;;;13.23;100.00;99824.41;5263391;28;20037;-74
2023/10/30 11:06:36;;;;;;;9.25;2.95;;;;;;;13.27;100.00;99823.38;5263214;28;20025;-74
2023/10/30 11:09:33;;;;;;;9.95;3.25;;;;;;;13.32;100.00;99825.81;5263814;28;20033;-73
2023/10/30 11:12:40;;;;;;;10.25;2.70;;;;;;;13.35;100.00;99823.13;5263511;28;20445;-73
2023/10/30 11:15:31;;;;;;;8.32;2.08;;;;;;;13.37;100.00;99812.59;5264138;28;20033;-74
2023/10/30 11:18:18;;;;;;;6.55;2.08;;;;;;;13.37;100.00;99810.81;5261768;28;20473;-74
2023/10/30 11:21:17;;;;;;;7.97;2.50;;;;;;;13.35;100.00;99811.78;5263550;28;20099;-74
2023/10/30 11:23:59;;;;;;;5.85;1.98;;;;;;;13.26;100.00;99807.75;5263107;28;20021;-74
2023/10/30 11:26:33;;;;;;;5.95;2.35;;;;;;;13.25;100.00;99796.44;5263498;28;20059;-75
2023/10/30 11:29:44;;;;;;;6.43;2.00;;;;;;;13.28;100.00;99792.81;5262956;28;20222;-74
2023/10/30 11:32:16;;;;;;;7.53;2.25;;;;;;;13.33;100.00;99783.09;5262660;28;20472;-74
2023/10/30 11:34:48;;;;;;;9.27;2.55;;;;;;;13.50;100.00;99770.13;5262977;28;20108;-75
2023/10/30 11:37:23;;;;;;;6.40;2.00;;;;;;;13.61;100.00;99785.41;5262714;28;20480;-75
2023/10/30 11:39:54;;;;;;;6.68;2.00;;;;;;;13.57;100.00;99775.13;5262710;28;20040;-74
2023/10/30 11:42:30;;;;;;;6.77;2.53;;;;;;;13.54;100.00;99772.63;5262840;28;20036;-74
2023/10/30 11:45:18;;;;;;;6.57;1.80;;;;;;;13.59;100.00;99770.69;5262722;28;20104;-74
2023/10/30 11:48:09;;;;;;;5.53;1.73;;;;;;;13.44;99.79;99773.03;5262412;28;20067;-74
2023/10/30 11:50:45;;;;;;;5.15;2.25;;;;;;;13.40;100.00;99766.19;5261715;28;20037;-75